createdAt,value
2023-01-17T00:02:21.455Z,9.10
2023-01-17T00:05:08.076Z,9.57
2023-01-17T00:07:55.275Z,10.35
2023-01-17T00:10:24.922Z,7.57
2023-01-17T00:13:01.992Z,11.85
2023-01-17T00:15:31.004Z,8.73
2023-01-17T00:17:58.171Z,6.63
2023-01-17T00:20:47.365Z,9.88
2023-01-17T00:23:36.998Z,8.60
2023-01-17T00:26:09.561Z,11.30
2023-01-17T00:28:38.860Z,6.80
2023-01-17T00:31:07.962Z,9.30
2023-01-17T00:33:35.310Z,9.65
2023-01-17T00:36:07.079Z,7.82
2023-01-17T00:38:37.225Z,6.43
2023-01-17T00:41:08.636Z,9.98
2023-01-17T00:43:54.626Z,12.43
2023-01-17T00:46:41.798Z,7.07
2023-01-17T00:49:27.771Z,10.25
2023-01-17T00:52:14.190Z,6.72
2023-01-17T00:54:59.920Z,6.25
2023-01-17T00:57:46.342Z,7.57
2023-01-17T01:00:32.282Z,9.05
2023-01-17T01:03:19.955Z,9.93
2023-01-17T01:06:05.331Z,10.93
2023-01-17T01:08:50.886Z,8.50
2023-01-17T01:11:40.473Z,11.35
2023-01-17T01:14:28.898Z,14.70
2023-01-17T01:17:14.178Z,12.80
2023-01-17T01:19:59.527Z,9.90
2023-01-17T01:22:44.840Z,9.50
2023-01-17T01:25:30.348Z,11.00
2023-01-17T01:28:26.340Z,16.40
2023-01-17T01:31:12.069Z,14.30
2023-01-17T01:33:39.877Z,11.73
2023-01-17T01:36:08.845Z,14.65
2023-01-17T01:38:35.989Z,8.57
2023-01-17T01:41:04.497Z,18.95
2023-01-17T01:43:53.457Z,16.13
2023-01-17T01:46:38.357Z,15.07
2023-01-17T01:49:21.609Z,13.40
2023-01-17T01:51:54.521Z,13.45
2023-01-17T01:54:25.838Z,16.17
2023-01-17T01:56:59.023Z,16.08
2023-01-17T01:59:26.411Z,13.32
2023-01-17T02:01:56.042Z,16.48
2023-01-17T02:04:24.251Z,14.55
2023-01-17T02:07:15.204Z,10.95
2023-01-17T02:09:43.561Z,17.08
2023-01-17T02:12:12.100Z,19.95
2023-01-17T02:14:39.981Z,14.70
2023-01-17T02:17:35.222Z,17.77
2023-01-17T02:20:39.448Z,21.42
2023-01-17T02:23:36.166Z,12.25
2023-01-17T02:26:24.085Z,16.38
2023-01-17T02:29:06.928Z,19.90
2023-01-17T02:34:52.949Z,18.52
2023-01-17T02:37:25.420Z,14.90
2023-01-17T02:39:59.691Z,12.23
2023-01-17T02:42:33.408Z,22.05
2023-01-17T02:45:02.972Z,15.38
2023-01-17T02:47:32.188Z,14.95
2023-01-17T02:50:10.344Z,14.82
2023-01-17T02:52:46.286Z,20.73
2023-01-17T02:55:42.558Z,16.10
2023-01-17T02:58:31.053Z,17.90
2023-01-17T03:01:08.116Z,20.65
2023-01-17T03:03:52.823Z,14.77
2023-01-17T03:06:40.056Z,17.88
2023-01-17T03:09:08.775Z,16.92
2023-01-17T03:11:36.473Z,18.83
2023-01-17T03:14:03.367Z,16.83
2023-01-17T03:16:34.383Z,16.90
2023-01-17T03:19:04.946Z,20.40
2023-01-17T03:21:31.907Z,17.35
2023-01-17T03:23:58.866Z,15.43
2023-01-17T03:26:25.708Z,15.63
2023-01-17T03:28:52.728Z,16.33
2023-01-17T03:31:22.261Z,18.23
2023-01-17T03:33:49.184Z,12.50
2023-01-17T03:36:18.554Z,14.23
2023-01-17T03:38:45.607Z,15.45
2023-01-17T03:41:13.917Z,15.07
2023-01-17T03:43:40.838Z,14.15
2023-01-17T03:46:21.311Z,15.43
2023-01-17T03:48:48.460Z,12.60
2023-01-17T03:51:15.348Z,15.75
2023-01-17T03:53:42.930Z,24.67
2023-01-17T03:56:09.860Z,15.77
2023-01-17T03:58:36.741Z,15.18
2023-01-17T04:01:04.952Z,16.27
2023-01-17T04:03:31.892Z,16.15
2023-01-17T04:05:58.845Z,16.23
2023-01-17T04:08:26.819Z,17.05
2023-01-17T04:10:53.911Z,19.25
2023-01-17T04:13:20.863Z,16.45
2023-01-17T04:15:50.769Z,22.02
2023-01-17T04:18:20.222Z,20.77
2023-01-17T04:20:47.378Z,18.50
2023-01-17T04:23:14.393Z,17.77
2023-01-17T04:25:41.409Z,17.17
2023-01-17T04:28:10.844Z,19.58
2023-01-17T04:30:37.861Z,15.45
2023-01-17T04:33:05.326Z,18.60
2023-01-17T04:35:33.738Z,20.90
2023-01-17T04:38:01.837Z,20.48
2023-01-17T04:40:30.728Z,17.20
2023-01-17T04:42:58.323Z,21.42
2023-01-17T04:45:25.417Z,17.75
2023-01-17T04:47:53.289Z,17.75
2023-01-17T04:50:20.546Z,28.38
2023-01-17T04:52:50.890Z,23.15
2023-01-17T04:55:18.320Z,14.52
2023-01-17T04:57:45.450Z,22.38
2023-01-17T05:00:12.924Z,22.90
2023-01-17T05:02:43.020Z,16.92
2023-01-17T05:05:10.483Z,20.38
2023-01-17T05:07:37.411Z,23.98
2023-01-17T05:10:04.708Z,24.50
2023-01-17T05:12:31.690Z,17.40
2023-01-17T05:14:58.645Z,23.58
2023-01-17T05:17:30.931Z,17.60
2023-01-17T05:20:00.096Z,23.60
2023-01-17T05:22:29.198Z,19.20
2023-01-17T05:24:56.596Z,22.85
2023-01-17T05:27:23.468Z,22.45
2023-01-17T05:29:50.345Z,14.13
2023-01-17T05:32:19.557Z,19.42
2023-01-17T05:34:46.583Z,19.38
2023-01-17T05:37:15.523Z,21.60
2023-01-17T05:39:42.490Z,20.25
2023-01-17T05:42:09.255Z,20.00
2023-01-17T05:44:36.161Z,18.92
2023-01-17T05:47:03.086Z,21.75
2023-01-17T05:49:31.000Z,19.98
2023-01-17T05:51:58.867Z,18.92
2023-01-17T05:54:25.803Z,20.35
2023-01-17T05:56:58.525Z,19.48
2023-01-17T05:59:36.652Z,22.00
2023-01-17T06:02:04.570Z,20.00
2023-01-17T06:04:31.623Z,21.23
2023-01-17T06:06:59.679Z,19.95
2023-01-17T06:09:27.528Z,21.35
2023-01-17T06:11:55.787Z,16.98
2023-01-17T06:14:22.951Z,21.42
2023-01-17T06:16:49.946Z,17.02
2023-01-17T06:19:17.910Z,20.65
2023-01-17T06:21:45.843Z,19.98
2023-01-17T06:24:13.761Z,18.88
2023-01-17T06:26:44.173Z,17.38
2023-01-17T06:29:12.821Z,20.63
2023-01-17T06:31:39.773Z,17.13
2023-01-17T06:34:07.747Z,20.40
2023-01-17T06:36:34.662Z,16.85
2023-01-17T06:39:01.568Z,22.90
2023-01-17T06:41:28.719Z,16.70
2023-01-17T06:43:56.662Z,18.02
2023-01-17T06:46:23.753Z,19.73
2023-01-17T06:48:50.778Z,19.92
2023-01-17T06:51:17.999Z,17.58
2023-01-17T06:53:44.995Z,21.85
2023-01-17T06:56:13.352Z,18.95
2023-01-17T06:58:42.600Z,19.70
2023-01-17T07:01:13.290Z,17.27
2023-01-17T07:03:40.436Z,20.63
2023-01-17T07:06:09.446Z,17.63
2023-01-17T07:08:48.072Z,16.92
2023-01-17T07:11:18.575Z,15.93
2023-01-17T07:13:45.628Z,21.60
2023-01-17T07:16:12.904Z,22.98
2023-01-17T07:18:40.189Z,22.60
2023-01-17T07:21:15.369Z,16.70
2023-01-17T07:23:42.489Z,21.58
2023-01-17T07:26:09.437Z,18.30
2023-01-17T07:28:37.469Z,26.27
2023-01-17T07:31:18.604Z,13.88
2023-01-17T07:33:45.490Z,25.00
2023-01-17T07:36:12.455Z,21.08
2023-01-17T07:38:40.684Z,16.83
2023-01-17T07:41:10.954Z,21.23
2023-01-17T07:43:39.174Z,18.48
2023-01-17T07:46:08.095Z,22.85
2023-01-17T07:48:35.279Z,22.52
2023-01-17T07:51:02.216Z,25.27
2023-01-17T07:53:33.629Z,18.27
2023-01-17T07:56:04.308Z,24.17
2023-01-17T07:58:34.375Z,19.88
2023-01-17T08:01:06.840Z,22.98
2023-01-17T08:03:39.961Z,25.40
2023-01-17T08:06:17.310Z,18.80
2023-01-17T08:08:44.554Z,17.02
2023-01-17T08:11:12.795Z,15.32
2023-01-17T08:13:40.198Z,21.70
2023-01-17T08:16:07.847Z,17.80
2023-01-17T08:18:34.976Z,25.60
2023-01-17T08:21:04.530Z,17.80
2023-01-17T08:23:31.594Z,19.65
2023-01-17T08:26:02.017Z,16.02
2023-01-17T08:28:30.075Z,27.73
2023-01-17T08:30:57.931Z,18.95
2023-01-17T08:33:28.457Z,36.10
2023-01-17T08:35:57.702Z,37.20
2023-01-17T08:38:24.595Z,38.90
2023-01-17T08:40:51.489Z,24.75
2023-01-17T08:43:19.765Z,20.67
2023-01-17T08:45:55.950Z,16.10
2023-01-17T08:48:26.131Z,23.40
2023-01-17T08:50:53.005Z,20.88
2023-01-17T08:53:21.679Z,19.02
2023-01-17T08:55:48.621Z,13.80
2023-01-17T08:58:16.768Z,22.08
2023-01-17T09:00:43.753Z,19.52
2023-01-17T09:03:14.408Z,24.67
2023-01-17T09:05:41.499Z,17.50
2023-01-17T09:08:08.494Z,17.15
2023-01-17T09:10:36.490Z,13.95
2023-01-17T09:13:06.788Z,16.70
2023-01-17T09:15:34.677Z,15.13
2023-01-17T09:18:01.643Z,16.90
2023-01-17T09:20:30.831Z,16.88
2023-01-17T09:23:00.425Z,16.00
2023-01-17T09:25:27.488Z,19.27
2023-01-17T09:27:54.419Z,17.70
2023-01-17T09:30:22.085Z,27.92
2023-01-17T09:32:53.741Z,24.30
2023-01-17T09:35:21.683Z,22.57
2023-01-17T09:37:52.060Z,24.77
2023-01-17T09:40:22.856Z,27.48
2023-01-17T09:42:54.019Z,26.67
2023-01-17T09:45:21.586Z,27.90
2023-01-17T09:47:54.293Z,21.30
2023-01-17T09:50:47.129Z,27.20
2023-01-17T09:53:18.507Z,25.27
2023-01-17T09:56:03.561Z,24.13
2023-01-17T09:58:36.586Z,27.75
2023-01-17T10:01:41.282Z,24.75
2023-01-17T10:04:22.053Z,29.67
2023-01-17T10:07:08.804Z,26.90
2023-01-17T10:09:49.069Z,27.05
2023-01-17T10:12:30.326Z,28.38
2023-01-17T10:15:13.227Z,25.05
2023-01-17T10:20:38.280Z,22.52
2023-01-17T10:23:28.304Z,27.13
2023-01-17T10:26:00.553Z,24.27
2023-01-17T10:28:40.200Z,28.75
2023-01-17T10:31:20.568Z,23.88
2023-01-17T10:34:19.672Z,23.38
2023-01-17T10:36:53.681Z,21.45
2023-01-17T10:39:24.322Z,26.25
2023-01-17T10:41:58.038Z,24.52
2023-01-17T10:44:38.963Z,27.20
2023-01-17T10:47:21.608Z,18.65
2023-01-17T10:49:54.901Z,30.52
2023-01-17T10:52:52.980Z,38.38
2023-01-17T10:55:25.907Z,16.10
2023-01-17T10:57:54.128Z,14.85
2023-01-17T11:00:23.368Z,16.10
2023-01-17T11:02:52.048Z,15.55
2023-01-17T11:05:25.049Z,18.67
2023-01-17T11:07:59.169Z,18.95
2023-01-17T11:10:40.362Z,13.75
2023-01-17T11:13:23.182Z,12.98
2023-01-17T11:15:57.893Z,9.77
2023-01-17T11:18:29.800Z,12.75
2023-01-17T11:21:15.374Z,11.18
2023-01-17T11:24:08.629Z,13.30
2023-01-17T11:26:36.887Z,12.52
2023-01-17T11:29:31.500Z,10.23
2023-01-17T11:32:18.797Z,9.70
2023-01-17T11:35:25.606Z,23.27
2023-01-17T11:37:58.963Z,13.85
2023-01-17T11:40:37.603Z,10.95
2023-01-17T11:43:21.859Z,7.20
2023-01-17T11:46:15.692Z,7.53
2023-01-17T11:48:49.539Z,8.50
2023-01-17T11:51:25.891Z,12.00
2023-01-17T11:53:55.197Z,10.48
2023-01-17T11:56:34.506Z,9.68
2023-01-17T11:59:26.889Z,7.68
2023-01-17T12:02:01.167Z,7.43
2023-01-17T12:04:38.423Z,7.10
2023-01-17T12:07:22.043Z,9.38
2023-01-17T12:10:21.419Z,10.85
2023-01-17T12:13:16.270Z,10.63
2023-01-17T12:16:31.982Z,11.23
2023-01-17T12:19:14.583Z,13.02
2023-01-17T12:21:54.031Z,12.10
2023-01-17T12:24:29.247Z,8.05
2023-01-17T12:27:25.933Z,7.57
2023-01-17T12:30:20.435Z,7.50
2023-01-17T12:33:10.291Z,5.07
2023-01-17T12:36:36.520Z,5.60
2023-01-17T12:39:11.192Z,8.35
2023-01-17T12:41:47.493Z,11.85
2023-01-17T12:44:18.444Z,7.78
2023-01-17T12:47:00.758Z,10.23
2023-01-17T12:49:43.303Z,7.00
2023-01-17T12:52:14.340Z,7.88
2023-01-17T12:54:51.188Z,10.23
2023-01-17T12:57:24.998Z,13.55
2023-01-17T13:00:08.142Z,14.98
2023-01-17T13:02:43.995Z,10.15
2023-01-17T13:05:24.924Z,10.90
2023-01-17T13:08:13.757Z,6.60
2023-01-17T13:10:49.213Z,9.43
2023-01-17T13:13:28.998Z,9.80
2023-01-17T13:16:05.295Z,11.02
2023-01-17T13:18:35.876Z,10.73
2023-01-17T13:21:10.968Z,9.90
2023-01-17T13:23:48.077Z,10.27
2023-01-17T13:26:30.538Z,10.57
2023-01-17T13:29:26.940Z,9.48
2023-01-17T13:32:18.678Z,5.97
2023-01-17T13:35:06.432Z,6.70
2023-01-17T13:37:47.475Z,6.47
2023-01-17T13:40:43.064Z,6.97
2023-01-17T13:43:39.501Z,12.68
2023-01-17T13:46:07.229Z,6.15
2023-01-17T13:48:38.559Z,5.25
2023-01-17T13:51:19.374Z,7.55
2023-01-17T13:53:47.218Z,5.95
2023-01-17T13:56:19.020Z,10.90
2023-01-17T13:58:50.160Z,7.37
2023-01-17T14:01:39.989Z,11.60
2023-01-17T14:04:11.457Z,7.70
2023-01-17T14:06:45.210Z,11.13
2023-01-17T14:09:44.840Z,10.27
2023-01-17T14:12:16.760Z,11.50
2023-01-17T14:14:50.794Z,7.70
2023-01-17T14:17:27.996Z,11.73
2023-01-17T14:20:19.789Z,18.50
2023-01-17T14:22:59.972Z,11.57
2023-01-17T14:25:53.543Z,8.82
2023-01-17T14:28:32.218Z,9.90
2023-01-17T14:31:01.043Z,8.93
2023-01-17T14:33:37.482Z,9.50
2023-01-17T14:36:19.680Z,14.88
2023-01-17T14:38:50.273Z,16.97
2023-01-17T14:41:24.977Z,13.10
2023-01-17T14:43:56.434Z,12.98
2023-01-17T14:46:27.078Z,18.50
2023-01-17T14:49:16.384Z,11.93
2023-01-17T14:51:43.619Z,10.00
2023-01-17T14:54:21.147Z,8.35
2023-01-17T14:56:51.227Z,12.25
2023-01-17T14:59:22.290Z,3.72
2023-01-17T15:02:07.604Z,7.63
2023-01-17T15:04:39.915Z,6.43
2023-01-17T15:07:13.112Z,10.93
2023-01-17T15:09:43.303Z,10.55
2023-01-17T15:12:16.895Z,13.35
2023-01-17T15:14:47.083Z,10.65
2023-01-17T15:17:26.373Z,16.08
2023-01-17T15:19:59.217Z,9.43
2023-01-17T15:22:29.797Z,21.10
2023-01-17T15:25:00.184Z,13.80
2023-01-17T15:27:28.539Z,8.32
2023-01-17T15:30:01.780Z,12.30
2023-01-17T15:32:31.384Z,12.50
2023-01-17T15:35:02.483Z,9.20
2023-01-17T15:37:36.812Z,7.43
2023-01-17T15:40:23.726Z,12.75
2023-01-17T15:43:01.441Z,10.82
2023-01-17T15:45:30.899Z,15.65
2023-01-17T15:48:19.991Z,9.85
2023-01-17T15:50:49.394Z,7.43
2023-01-17T15:53:33.578Z,6.30
2023-01-17T15:56:01.717Z,11.02
2023-01-17T15:58:31.267Z,12.73
2023-01-17T16:01:03.147Z,17.67
2023-01-17T16:03:31.495Z,11.75
2023-01-17T16:06:01.711Z,18.35
2023-01-17T16:08:39.966Z,18.58
2023-01-17T16:11:12.110Z,10.90
2023-01-17T16:13:42.144Z,7.80
2023-01-17T16:16:23.506Z,11.15
2023-01-17T16:18:59.624Z,19.52
2023-01-17T16:21:29.776Z,12.85
2023-01-17T16:24:03.311Z,14.73
2023-01-17T16:26:31.081Z,9.63
2023-01-17T16:29:00.743Z,22.92
2023-01-17T16:31:28.410Z,11.75
2023-01-17T16:33:56.146Z,18.98
2023-01-17T16:36:24.696Z,15.35
2023-01-17T16:38:54.316Z,18.60
2023-01-17T16:41:22.980Z,14.35
2023-01-17T16:43:59.967Z,20.25
2023-01-17T16:46:31.091Z,14.60
2023-01-17T17:11:23.175Z,15.55
2023-01-17T17:13:55.483Z,10.15
2023-01-17T17:19:13.555Z,10.52
2023-01-17T17:21:42.185Z,19.17
2023-01-17T17:24:13.895Z,25.52
2023-01-17T17:26:45.092Z,23.73
2023-01-17T17:29:15.757Z,13.52
2023-01-17T17:31:44.084Z,19.70
2023-01-17T17:34:12.838Z,18.98
2023-01-17T17:36:41.587Z,9.55
2023-01-17T17:39:18.724Z,18.67
2023-01-17T17:41:46.597Z,17.00
2023-01-17T17:44:17.576Z,14.10
2023-01-17T17:46:52.279Z,12.02
2023-01-17T17:49:23.056Z,15.52
2023-01-17T17:51:50.332Z,10.80
2023-01-17T17:54:21.631Z,12.77
2023-01-17T17:56:54.957Z,24.90
2023-01-17T17:59:26.209Z,31.70
2023-01-17T18:04:54.589Z,23.08
2023-01-17T18:07:26.783Z,30.80
2023-01-17T18:09:56.903Z,20.15
2023-01-17T18:12:33.520Z,26.58
2023-01-17T18:15:01.994Z,21.33
2023-01-17T18:17:31.048Z,18.45
2023-01-17T18:20:00.057Z,21.70
2023-01-17T18:22:36.756Z,24.45
2023-01-17T18:27:54.712Z,51.47
2023-01-17T18:30:26.197Z,58.55
2023-01-17T18:36:00.002Z,37.97
2023-01-17T18:44:22.659Z,19.80
2023-01-17T18:49:41.351Z,41.80
2023-01-17T18:52:14.937Z,59.45
2023-01-17T18:54:42.032Z,35.30
2023-01-17T18:57:13.148Z,24.90
2023-01-17T18:59:42.247Z,28.88
2023-01-17T19:02:10.068Z,27.70
2023-01-17T19:04:39.364Z,17.83
2023-01-17T19:07:06.536Z,18.27
2023-01-17T19:09:37.384Z,20.33
2023-01-17T19:12:05.925Z,21.48
2023-01-17T19:14:33.168Z,19.50
2023-01-17T19:17:02.072Z,26.60
2023-01-17T19:19:30.708Z,22.85
2023-01-17T19:21:58.037Z,17.30
2023-01-17T19:24:25.391Z,18.40
2023-01-17T19:26:54.046Z,18.08
2023-01-17T19:29:23.519Z,21.75
2023-01-17T19:49:40.946Z,22.15
2023-01-17T19:52:17.431Z,20.23
2023-01-17T19:54:51.703Z,20.48
2023-01-17T19:57:24.718Z,29.70
2023-01-17T20:02:42.950Z,23.27
2023-01-17T20:05:11.793Z,29.92
2023-01-17T20:07:43.773Z,25.42
2023-01-17T20:10:53.087Z,21.48
2023-01-17T20:13:25.244Z,25.80
2023-01-17T20:16:05.556Z,25.15
2023-01-17T20:18:35.862Z,26.80
2023-01-17T20:21:09.283Z,28.35
2023-01-17T20:26:52.362Z,28.13
2023-01-17T20:29:28.165Z,26.25
2023-01-17T20:31:57.425Z,30.17
2023-01-17T20:34:32.184Z,25.75
2023-01-17T20:40:58.632Z,25.25
2023-01-17T20:50:53.397Z,30.13
2023-01-17T20:53:51.263Z,27.35
2023-01-17T20:56:21.912Z,27.92
2023-01-17T21:04:31.819Z,30.50
2023-01-17T21:07:05.492Z,30.75
2023-01-17T21:09:33.064Z,28.77
2023-01-17T21:12:09.629Z,25.45
2023-01-17T21:14:40.725Z,29.98
2023-01-17T21:17:14.699Z,19.25
2023-01-17T21:19:55.338Z,28.77
2023-01-17T21:25:11.657Z,25.70
2023-01-17T21:27:41.385Z,28.02
2023-01-17T21:30:11.909Z,29.63
2023-01-17T21:32:38.941Z,28.60
2023-01-17T21:35:07.880Z,31.52
2023-01-17T21:37:35.828Z,29.58
2023-01-17T21:40:05.350Z,31.42
2023-01-17T21:42:36.602Z,32.35
2023-01-17T21:45:06.498Z,29.95
2023-01-17T21:47:35.130Z,33.55
2023-01-17T21:50:04.250Z,28.70
2023-01-17T21:52:35.498Z,31.70
2023-01-17T21:55:24.675Z,29.10
2023-01-17T21:58:11.590Z,33.33
2023-01-17T22:00:44.284Z,30.50
2023-01-17T22:03:12.330Z,30.65
2023-01-17T22:05:39.491Z,30.40
2023-01-17T22:08:13.628Z,30.75
2023-01-17T22:10:53.034Z,27.50
2023-01-17T22:13:20.709Z,30.92
2023-01-17T22:15:59.935Z,34.58
2023-01-17T22:18:33.424Z,30.23
2023-01-17T22:21:05.412Z,31.13
2023-01-17T22:23:33.362Z,28.58
2023-01-17T22:26:10.982Z,27.27
2023-01-17T22:28:41.873Z,32.10
2023-01-17T22:31:18.065Z,33.72
2023-01-17T22:33:47.604Z,33.10
2023-01-17T22:36:18.317Z,30.75
2023-01-17T22:38:46.238Z,31.67
2023-01-17T22:41:20.297Z,26.15
2023-01-17T22:43:49.898Z,30.55
2023-01-17T22:46:25.754Z,31.92
2023-01-17T22:48:56.861Z,28.52
2023-01-17T22:51:29.125Z,28.85
2023-01-17T22:53:58.859Z,26.45
2023-01-17T22:56:29.701Z,28.38
2023-01-17T22:59:01.524Z,23.42
2023-01-17T23:01:31.278Z,23.97
2023-01-17T23:04:03.918Z,27.52
2023-01-17T23:06:39.035Z,24.60
2023-01-17T23:09:12.630Z,29.38
2023-01-17T23:11:48.481Z,27.02
2023-01-17T23:15:09.799Z,26.20
2023-01-17T23:18:07.315Z,19.42
2023-01-17T23:20:35.461Z,33.97
2023-01-17T23:23:05.344Z,25.80
2023-01-17T23:25:35.593Z,29.00
2023-01-17T23:28:14.395Z,31.38
2023-01-17T23:30:43.720Z,35.45
2023-01-17T23:33:17.421Z,34.28
2023-01-17T23:35:46.676Z,34.33
2023-01-17T23:38:28.867Z,30.05
2023-01-17T23:41:25.927Z,45.70
2023-01-17T23:43:55.681Z,32.97
2023-01-17T23:46:27.962Z,35.88
2023-01-17T23:48:56.610Z,32.08
2023-01-17T23:51:24.599Z,27.75
2023-01-17T23:53:58.437Z,21.88
2023-01-17T23:56:25.580Z,26.55
2023-01-17T23:58:56.717Z,28.40
